Time;durP1;ratioP1;P1;durP2;ratioP2;P2;SDS_P1;SDS_P2;PMS_P1;PMS_P2;Temp;Humidity;BMP_temperature;BMP_pressure;BME280_temperature;BME280_humidity;BME280_pressure;Samples;Min_cycle;Max_cycle;Signal;HPM_P1;HPM_P2
2022/03/27 00:00:09;;;;;;;9.95;7.18;;;;;;;10.61;64.77;102494.03;688000;28;1261;-87
2022/03/27 00:00:40;;;;;;;10.93;7.32;;;;;;;10.51;65.06;102472.66;693494;28;1247;-86
2022/03/27 00:01:01;;;;;;;11.98;7.40;;;;;;;10.51;65.01;102483.09;690635;28;1229;-86
2022/03/27 00:01:21;;;;;;;12.23;7.10;;;;;;;10.58;65.09;102492.19;688075;28;1286;-86
2022/03/27 00:01:42;;;;;;;12.90;7.40;;;;;;;10.59;64.80;102493.97;688383;28;1182;-86
2022/03/27 00:02:05;;;;;;;10.70;7.20;;;;;;;10.56;64.75;102496.41;689640;28;1281;-88
2022/03/27 00:02:25;;;;;;;10.98;7.10;;;;;;;10.53;64.93;102486.72;690889;28;1102;-85
2022/03/27 00:02:46;;;;;;;10.65;7.07;;;;;;;10.53;64.71;102493.63;690908;28;1283;-86
2022/03/27 00:03:07;;;;;;;12.17;7.20;;;;;;;10.57;65.01;102492.09;690526;28;1358;-87
2022/03/27 00:03:28;;;;;;;10.60;7.47;;;;;;;10.48;65.13;102479.41;685383;28;1258;-86
2022/03/27 00:03:49;;;;;;;9.82;7.45;;;;;;;10.55;64.96;102494.59;688164;28;1303;-86
2022/03/27 00:04:09;;;;;;;10.87;7.30;;;;;;;10.47;64.88;102483.75;696047;28;1339;-86
2022/03/27 00:04:30;;;;;;;10.00;6.80;;;;;;;10.50;65.24;102496.06;696204;28;1385;-87
2022/03/27 00:04:51;;;;;;;12.18;6.90;;;;;;;10.55;65.11;102494.59;690622;28;1311;-85
2022/03/27 00:05:12;;;;;;;11.50;7.50;;;;;;;10.52;64.80;102489.22;693319;28;1285;-86
2022/03/27 00:05:33;;;;;;;12.05;7.60;;;;;;;10.53;64.93;102501.47;696218;28;1324;-86
2022/03/27 00:05:54;;;;;;;10.90;8.00;;;;;;;10.45;64.93;102480.13;690624;28;1376;-86
2022/03/27 00:06:14;;;;;;;11.23;7.90;;;;;;;10.45;64.94;102480.13;693424;28;1320;-87
2022/03/27 00:06:35;;;;;;;11.80;7.97;;;;;;;10.41;64.95;102481.69;690670;28;1125;-86
2022/03/27 00:06:55;;;;;;;10.55;7.47;;;;;;;10.48;65.37;102493.38;688615;28;1259;-86
2022/03/27 00:07:16;;;;;;;10.35;7.35;;;;;;;10.38;65.06;102481.50;690517;28;1273;-86
2022/03/27 00:07:37;;;;;;;10.63;7.33;;;;;;;10.42;65.01;102498.25;687946;28;1262;-86
2022/03/27 00:08:16;;;;;;;11.23;7.47;;;;;;;10.46;65.28;102496.69;686224;28;1368;-85
2022/03/27 00:08:36;;;;;;;11.60;7.80;;;;;;;10.45;65.44;102501.00;690736;28;1540;-86
2022/03/27 00:08:57;;;;;;;11.85;7.75;;;;;;;10.43;65.32;102496.53;693049;28;1305;-86
2022/03/27 00:09:17;;;;;;;11.40;7.43;;;;;;;10.38;65.38;102491.94;690538;28;1267;-86
2022/03/27 00:09:38;;;;;;;12.30;7.60;;;;;;;10.39;65.21;102488.53;695993;28;1380;-87
2022/03/27 00:09:59;;;;;;;10.32;7.32;;;;;;;10.39;65.55;102493.75;687909;28;1380;-86
2022/03/27 00:10:19;;;;;;;10.27;7.30;;;;;;;10.40;65.51;102505.97;688011;28;1175;-86
2022/03/27 00:11:25;;;;;;;14.35;7.18;;;;;;;10.32;65.42;102490.72;690695;28;1212;-86
2022/03/27 00:11:46;;;;;;;13.90;7.90;;;;;;;10.38;65.70;102497.16;682808;29;1225;-86
2022/03/27 00:12:07;;;;;;;14.75;8.07;;;;;;;10.40;65.64;102503.38;684648;28;1563;-86
2022/03/27 00:12:27;;;;;;;13.38;8.02;;;;;;;10.36;65.53;102492.66;685391;28;1363;-87
2022/03/27 00:12:48;;;;;;;11.73;7.73;;;;;;;10.36;65.58;102493.56;688096;28;1165;-86
2022/03/27 00:13:08;;;;;;;11.20;7.97;;;;;;;10.41;65.59;102499.97;688028;28;1250;-86
2022/03/27 00:13:29;;;;;;;9.87;7.47;;;;;;;10.41;65.88;102496.44;687656;28;1073;-86
2022/03/27 00:13:58;;;;;;;10.18;7.40;;;;;;;10.36;65.62;102483.13;690059;28;1678;-86
2022/03/27 00:14:19;;;;;;;12.65;7.10;;;;;;;10.47;65.43;102502.03;693339;28;1161;-86
2022/03/27 00:14:39;;;;;;;14.03;7.63;;;;;;;10.44;65.87;102490.50;692649;28;1707;-86
2022/03/27 00:15:01;;;;;;;14.45;8.20;;;;;;;10.49;65.75;102494.25;690582;28;1180;-86
2022/03/27 00:15:22;;;;;;;13.88;8.15;;;;;;;10.49;65.42;102495.16;687985;28;1355;-87
2022/03/27 00:15:43;;;;;;;13.95;7.72;;;;;;;10.59;65.75;102508.72;693205;28;1281;-86
2022/03/27 00:16:04;;;;;;;13.70;7.77;;;;;;;10.50;65.52;102483.91;693516;28;1185;-87
2022/03/27 00:16:25;;;;;;;11.02;7.60;;;;;;;10.59;65.37;102501.81;696361;28;890;-86
2022/03/27 00:16:45;;;;;;;10.25;7.90;;;;;;;10.58;65.63;102488.66;693480;28;1337;-86
2022/03/27 00:17:06;;;;;;;9.57;7.60;;;;;;;10.59;65.80;102490.44;689476;28;1375;-85
2022/03/27 00:17:29;;;;;;;11.00;8.07;;;;;;;10.61;65.71;102494.94;685492;28;1221;-86
2022/03/27 00:17:50;;;;;;;11.63;8.18;;;;;;;10.61;65.38;102488.81;690647;28;1268;-86
2022/03/27 00:18:10;;;;;;;11.20;7.87;;;;;;;10.65;65.35;102491.72;690499;28;1479;-86
2022/03/27 00:18:31;;;;;;;10.13;7.83;;;;;;;10.67;65.51;102487.47;685212;28;1160;-86
2022/03/27 00:18:55;;;;;;;9.85;7.38;;;;;;;10.78;65.35;102498.50;685550;28;1532;-86
2022/03/27 00:19:15;;;;;;;10.90;7.63;;;;;;;10.73;65.24;102478.16;686586;28;1396;-86
2022/03/27 00:19:36;;;;;;;12.40;7.83;;;;;;;10.78;65.39;102490.66;690358;28;1742;-87
2022/03/27 00:19:57;;;;;;;13.18;8.27;;;;;;;10.82;65.25;102499.56;692668;28;1926;-86
2022/03/27 00:20:17;;;;;;;13.30;8.20;;;;;;;10.86;65.21;102498.03;687967;28;1326;-85
2022/03/27 00:20:41;;;;;;;14.00;8.20;;;;;;;10.88;65.25;102499.88;687940;28;1305;-87
2022/03/27 00:21:03;;;;;;;15.63;8.57;;;;;;;10.91;65.00;102494.84;692332;28;1263;-86
2022/03/27 00:21:24;;;;;;;15.35;8.45;;;;;;;10.95;65.06;102495.91;688201;28;1778;-86
2022/03/27 00:21:45;;;;;;;14.95;8.00;;;;;;;10.93;65.25;102498.44;691042;28;1268;-86
2022/03/27 00:22:05;;;;;;;15.80;8.03;;;;;;;10.96;65.18;102495.97;692472;28;1151;-86
2022/03/27 00:22:27;;;;;;;19.40;8.30;;;;;;;10.94;64.94;102495.00;690664;28;1232;-86
2022/03/27 00:22:47;;;;;;;19.08;8.30;;;;;;;10.94;65.17;102484.56;685002;28;1270;-87
2022/03/27 00:23:08;;;;;;;17.15;8.00;;;;;;;11.00;65.12;102496.16;690403;28;1330;-87
2022/03/27 00:23:28;;;;;;;14.43;8.10;;;;;;;11.08;64.97;102502.69;687953;28;1307;-86
2022/03/27 00:23:50;;;;;;;13.52;8.30;;;;;;;11.04;64.87;102487.66;684509;28;1329;-86
2022/03/27 00:24:11;;;;;;;13.82;8.60;;;;;;;11.10;64.93;102495.81;682737;29;950;-86
2022/03/27 00:24:32;;;;;;;12.85;8.43;;;;;;;11.11;64.82;102492.41;687893;28;1257;-86
2022/03/27 00:24:52;;;;;;;14.35;9.38;;;;;;;11.10;64.84;102485.38;689474;28;1646;-87
2022/03/27 00:25:13;;;;;;;14.03;9.40;;;;;;;11.20;64.78;102492.00;690855;28;1334;-86
2022/03/27 00:25:33;;;;;;;14.07;9.43;;;;;;;11.23;64.92;102493.06;687893;28;1258;-87
2022/03/27 00:25:54;;;;;;;12.40;8.27;;;;;;;11.19;64.91;102484.97;685248;28;1688;-86
2022/03/27 00:26:16;;;;;;;13.10;8.33;;;;;;;11.31;64.88;102500.41;685201;28;1702;-86
2022/03/27 00:26:40;;;;;;;13.57;8.55;;;;;;;11.31;64.61;102501.28;690653;28;1131;-85
2022/03/27 00:27:00;;;;;;;13.40;8.60;;;;;;;11.33;64.57;102498.78;694632;28;1246;-86
2022/03/27 00:27:21;;;;;;;13.60;8.50;;;;;;;11.33;64.60;102493.53;688003;28;1329;-87
2022/03/27 00:27:41;;;;;;;13.88;8.40;;;;;;;11.39;64.64;102501.72;693424;28;1799;-86
2022/03/27 00:28:03;;;;;;;13.77;8.50;;;;;;;11.36;64.22;102488.47;693265;28;1310;-86
2022/03/27 00:28:25;;;;;;;13.40;8.23;;;;;;;11.40;64.34;102495.66;682210;28;1376;-88
2022/03/27 00:28:46;;;;;;;12.30;8.00;;;;;;;11.46;64.23;102505.53;685371;28;1338;-86
2022/03/27 00:29:08;;;;;;;11.18;8.38;;;;;;;11.41;64.54;102491.34;690578;28;1425;-85
2022/03/27 00:29:29;;;;;;;10.07;8.25;;;;;;;11.44;64.38;102492.38;690610;28;1788;-86
2022/03/27 00:29:50;;;;;;;10.20;8.27;;;;;;;11.43;64.21;102489.69;687755;28;1675;-86
2022/03/27 00:30:11;;;;;;;11.52;8.00;;;;;;;11.47;64.11;102495.16;687990;28;1368;-86
2022/03/27 00:30:31;;;;;;;11.65;8.05;;;;;;;11.54;64.18;102503.34;690628;28;1694;-86
2022/03/27 00:30:52;;;;;;;12.70;7.93;;;;;;;11.49;64.33;102493.53;690748;28;1219;-86
2022/03/27 00:31:12;;;;;;;11.95;8.18;;;;;;;11.51;64.27;102494.50;685148;28;1260;-87
2022/03/27 00:31:37;;;;;;;12.33;8.47;;;;;;;11.54;64.00;102498.09;687981;28;1150;-86
2022/03/27 00:31:58;;;;;;;11.25;8.35;;;;;;;11.55;64.16;102497.28;693378;28;1268;-86
2022/03/27 00:32:20;;;;;;;10.48;7.75;;;;;;;11.60;64.05;102498.41;689959;28;1187;-86
2022/03/27 00:32:41;;;;;;;11.80;7.70;;;;;;;11.62;63.83;102496.78;695556;28;1650;-86
2022/03/27 00:33:01;;;;;;;11.38;7.75;;;;;;;11.62;63.74;102500.28;690582;28;1283;-86
2022/03/27 00:33:22;;;;;;;13.90;8.00;;;;;;;11.63;63.69;102498.56;690592;28;1230;-86
2022/03/27 00:33:44;;;;;;;12.55;7.75;;;;;;;11.71;63.64;102507.75;693603;28;1045;-87
2022/03/27 00:34:05;;;;;;;14.88;8.15;;;;;;;11.69;63.64;102508.47;686147;28;1357;-87
2022/03/27 00:34:27;;;;;;;12.30;8.02;;;;;;;11.69;63.75;102498.94;690788;28;1379;-86
2022/03/27 00:34:48;;;;;;;11.10;7.85;;;;;;;11.71;63.80;102505.13;690861;28;1686;-86
2022/03/27 00:35:08;;;;;;;11.45;8.10;;;;;;;11.73;63.58;102495.63;687467;28;1370;-86
2022/03/27 00:35:29;;;;;;;11.55;7.95;;;;;;;11.77;63.44;102505.44;690877;28;1431;-86
2022/03/27 00:35:50;;;;;;;11.27;7.90;;;;;;;11.83;63.40;102511.78;688586;28;1252;-86
2022/03/27 00:36:13;;;;;;;10.55;7.50;;;;;;;11.86;63.27;102514.59;685647;28;1269;-87
2022/03/27 00:36:34;;;;;;;11.88;8.00;;;;;;;11.77;63.10;102491.47;689273;28;1256;-85
2022/03/27 00:36:54;;;;;;;10.43;7.47;;;;;;;11.83;63.21;102501.34;688975;28;1032;-86
2022/03/27 00:37:15;;;;;;;10.88;7.90;;;;;;;11.83;63.24;102498.72;690916;28;1385;-86
2022/03/27 00:37:36;;;;;;;11.02;7.70;;;;;;;11.86;63.11;102497.16;693766;28;1670;-87
2022/03/27 00:37:57;;;;;;;11.43;7.97;;;;;;;11.90;63.33;102511.28;689947;28;1238;-87
2022/03/27 00:38:17;;;;;;;12.70;8.20;;;;;;;11.90;63.18;102500.81;686615;28;1578;-86
2022/03/27 00:38:38;;;;;;;13.10;8.20;;;;;;;11.88;62.84;102506.00;691111;28;1583;-86
2022/03/27 00:38:59;;;;;;;12.70;8.07;;;;;;;11.90;62.89;102506.06;688581;28;1312;-87
2022/03/27 00:39:19;;;;;;;12.27;7.87;;;;;;;11.88;62.81;102492.00;688214;28;1278;-86
2022/03/27 00:39:40;;;;;;;11.30;7.70;;;;;;;11.89;62.86;102496.41;687631;28;1520;-86
2022/03/27 00:40:00;;;;;;;13.77;7.95;;;;;;;11.91;62.81;102494.75;696302;28;1914;-86
2022/03/27 00:40:21;;;;;;;12.40;7.83;;;;;;;12.00;62.82;102516.19;696324;28;1099;-86
2022/03/27 00:40:42;;;;;;;12.60;8.20;;;;;;;11.98;62.81;102507.34;690933;28;1449;-86
2022/03/27 00:41:05;;;;;;;9.90;8.10;;;;;;;11.97;62.66;102505.53;690829;28;1305;-86
2022/03/27 00:41:26;;;;;;;10.73;8.02;;;;;;;11.98;62.53;102504.72;694935;28;1285;-86
2022/03/27 00:41:47;;;;;;;10.60;7.90;;;;;;;11.99;62.42;102503.91;692414;28;1767;-85
2022/03/27 00:42:08;;;;;;;10.82;8.07;;;;;;;11.98;62.68;102499.47;687966;28;1472;-86
2022/03/27 00:42:29;;;;;;;10.32;8.02;;;;;;;11.98;62.59;102494.25;688211;28;1188;-86
2022/03/27 00:42:50;;;;;;;13.23;8.18;;;;;;;12.04;62.63;102501.53;690792;28;1587;-85
2022/03/27 00:43:11;;;;;;;12.20;7.87;;;;;;;11.99;62.56;102498.66;688225;28;1324;-87
2022/03/27 00:43:33;;;;;;;12.20;7.95;;;;;;;12.00;62.45;102499.56;689975;28;1389;-86
2022/03/27 00:43:54;;;;;;;11.75;8.13;;;;;;;12.04;62.39;102499.81;688547;28;1151;-86
2022/03/27 00:44:19;;;;;;;15.00;8.33;;;;;;;12.02;62.36;102493.59;690665;28;1301;-86
2022/03/27 00:44:40;;;;;;;12.50;8.00;;;;;;;12.05;62.46;102498.97;686464;28;1593;-86
2022/03/27 00:45:00;;;;;;;11.45;7.65;;;;;;;12.14;62.12;102502.88;683816;28;1697;-87
2022/03/27 00:45:21;;;;;;;8.70;7.47;;;;;;;12.13;62.26;102498.47;682646;28;1212;-86
2022/03/27 00:45:41;;;;;;;9.20;7.30;;;;;;;12.05;62.27;102498.97;685328;28;1207;-86
2022/03/27 00:46:03;;;;;;;10.80;7.50;;;;;;;12.17;62.06;102510.88;684590;28;1162;-86
2022/03/27 00:46:23;;;;;;;11.70;8.00;;;;;;;12.13;62.11;102495.84;689270;28;1273;-86
2022/03/27 00:46:44;;;;;;;12.00;8.10;;;;;;;12.14;62.07;102502.88;690389;28;1167;-86
2022/03/27 00:47:06;;;;;;;11.23;8.00;;;;;;;12.16;61.89;102496.00;687236;28;1354;-86
2022/03/27 00:47:28;;;;;;;11.45;7.93;;;;;;;12.17;62.09;102503.91;692666;28;1555;-86
2022/03/27 00:47:48;;;;;;;13.27;7.95;;;;;;;12.16;61.93;102501.25;690988;28;1839;-87
2022/03/27 00:48:10;;;;;;;12.90;8.23;;;;;;;12.16;61.97;102501.25;687731;28;1081;-86
2022/03/27 00:48:54;;;;;;;13.13;8.10;;;;;;;12.25;62.03;102514.78;690819;28;1718;-87
2022/03/27 00:49:15;;;;;;;13.38;7.53;;;;;;;12.19;61.95;102502.25;690426;28;1596;-86
2022/03/27 00:49:36;;;;;;;13.43;7.90;;;;;;;12.23;61.94;102503.31;691863;28;1195;-86
2022/03/27 00:49:56;;;;;;;13.30;7.80;;;;;;;12.22;61.70;102501.53;695069;28;1775;-86
2022/03/27 00:50:17;;;;;;;12.20;8.18;;;;;;;12.20;61.64;102498.84;690407;28;1227;-86
2022/03/27 00:50:38;;;;;;;12.13;7.70;;;;;;;12.16;61.68;102496.88;684138;28;1664;-86
2022/03/27 00:50:58;;;;;;;11.67;8.13;;;;;;;12.19;61.59;102493.53;689336;28;1162;-86
2022/03/27 00:51:19;;;;;;;12.23;8.20;;;;;;;12.16;61.44;102496.88;690249;28;1599;-86
2022/03/27 00:51:39;;;;;;;11.27;8.40;;;;;;;12.18;61.67;102496.97;688285;28;1161;-86
2022/03/27 00:52:00;;;;;;;11.23;8.02;;;;;;;12.21;61.37;102507.59;686652;28;1405;-86
2022/03/27 00:52:21;;;;;;;12.00;7.93;;;;;;;12.23;61.55;102498.06;682375;28;1273;-87
2022/03/27 00:52:42;;;;;;;11.77;8.00;;;;;;;12.25;61.22;102498.16;689476;28;1384;-86
2022/03/27 00:53:02;;;;;;;11.65;8.00;;;;;;;12.28;61.58;102507.06;690595;28;1362;-86
2022/03/27 00:53:23;;;;;;;11.70;8.20;;;;;;;12.29;61.30;102503.63;682672;28;1287;-85
2022/03/27 00:53:44;;;;;;;13.40;8.65;;;;;;;12.30;61.37;102502.78;690964;28;1331;-86
2022/03/27 00:54:05;;;;;;;14.07;8.30;;;;;;;12.33;61.20;102507.28;692693;28;1290;-86
2022/03/27 00:54:26;;;;;;;12.68;8.35;;;;;;;12.27;61.38;102494.81;690602;28;1286;-85
2022/03/27 00:54:46;;;;;;;11.85;7.90;;;;;;;12.29;61.31;102503.63;689068;28;1256;-86
2022/03/27 00:55:22;;;;;;;10.17;7.80;;;;;;;12.26;61.43;102498.25;693018;28;1265;-86
2022/03/27 00:55:46;;;;;;;10.50;7.80;;;;;;;12.31;61.17;102507.19;688249;28;1410;-87
2022/03/27 00:56:06;;;;;;;11.15;8.10;;;;;;;12.27;61.10;102505.28;690055;28;1292;-87
2022/03/27 00:56:27;;;;;;;12.30;8.50;;;;;;;12.26;61.29;102502.56;685253;28;1592;-86
2022/03/27 00:56:47;;;;;;;12.60;9.10;;;;;;;12.28;61.43;102499.22;688075;28;1220;-86
2022/03/27 00:57:08;;;;;;;15.73;9.40;;;;;;;12.29;61.05;102498.38;690733;28;965;-86
2022/03/27 00:57:30;;;;;;;16.17;9.40;;;;;;;12.26;61.20;102490.41;688264;28;1659;-86
2022/03/27 00:57:50;;;;;;;15.05;8.80;;;;;;;12.31;61.27;102499.34;690566;28;1237;-86
2022/03/27 00:58:13;;;;;;;12.73;8.88;;;;;;;12.29;60.89;102498.38;693584;28;959;-87
2022/03/27 00:58:33;;;;;;;11.00;8.27;;;;;;;12.32;60.97;102509.03;690518;28;1320;-86
2022/03/27 00:58:54;;;;;;;10.52;7.50;;;;;;;12.33;61.26;102509.91;688311;28;1677;-86
2022/03/27 00:59:14;;;;;;;11.67;7.40;;;;;;;12.25;61.30;102495.53;688116;28;1176;-86
2022/03/27 01:00:08;;;;;;;12.23;7.70;;;;;;;12.34;60.99;102511.69;689672;28;1552;-86
2022/03/27 01:00:37;;;;;;;10.90;7.80;;;;;;;12.36;60.93;102512.69;686196;28;1602;-85
2022/03/27 01:01:11;;;;;;;14.55;8.52;;;;;;;12.36;61.14;102512.69;691132;28;1130;-85
2022/03/27 01:01:33;;;;;;;15.32;8.50;;;;;;;12.27;61.09;102497.41;687918;28;1318;-86
2022/03/27 01:01:54;;;;;;;13.93;8.10;;;;;;;12.28;61.05;102487.88;693449;28;1268;-86
2022/03/27 01:02:14;;;;;;;12.95;8.38;;;;;;;12.26;60.94;102487.78;690820;28;1185;-86
2022/03/27 01:02:36;;;;;;;13.73;8.40;;;;;;;12.36;61.06;102498.69;686810;28;1272;-86
2022/03/27 01:02:57;;;;;;;13.20;8.18;;;;;;;12.43;60.94;102506.03;688856;28;1279;-86
2022/03/27 01:03:21;;;;;;;13.30;8.18;;;;;;;12.51;60.70;102499.44;692713;28;1180;-85
2022/03/27 01:03:43;;;;;;;11.48;8.00;;;;;;;12.50;60.51;102497.63;685018;28;1330;-87
2022/03/27 01:04:05;;;;;;;11.48;8.20;;;;;;;12.53;60.34;102494.28;690342;28;1403;-87
2022/03/27 01:04:26;;;;;;;10.75;8.05;;;;;;;12.58;60.29;102501.50;693055;28;1268;-86
2022/03/27 01:04:47;;;;;;;11.47;8.67;;;;;;;12.60;60.53;102499.84;689815;28;1785;-87
2022/03/27 01:05:13;;;;;;;12.27;9.53;;;;;;;12.57;60.08;102489.25;692050;28;1309;-86
2022/03/27 01:05:33;;;;;;;13.45;9.50;;;;;;;12.57;60.04;102481.41;687122;28;1755;-85
2022/03/27 01:05:58;;;;;;;12.57;8.60;;;;;;;12.56;60.16;102479.59;688267;28;1290;-86
2022/03/27 01:06:28;;;;;;;12.85;8.07;;;;;;;12.68;59.84;102499.31;690394;28;1266;-86
2022/03/27 01:06:49;;;;;;;11.95;7.90;;;;;;;12.63;60.25;102479.88;693417;28;1432;-86
2022/03/27 01:07:16;;;;;;;13.20;8.27;;;;;;;12.64;59.83;102486.94;687802;28;1275;-86
2022/03/27 01:07:40;;;;;;;13.20;8.18;;;;;;;12.68;59.86;102497.63;685391;28;1305;-86
2022/03/27 01:08:05;;;;;;;10.98;8.20;;;;;;;12.63;59.75;102474.63;692171;28;1296;-86
2022/03/27 01:09:37;;;;;;;12.90;8.95;;;;;;;12.72;59.58;102493.41;682161;28;1401;-85
2022/03/27 01:09:58;;;;;;;13.63;9.23;;;;;;;12.69;59.44;102475.84;679761;29;1161;-86
2022/03/27 01:10:23;;;;;;;12.93;9.27;;;;;;;12.67;59.80;102479.19;679831;29;1126;-86
2022/03/27 01:10:43;;;;;;;13.35;9.00;;;;;;;12.73;59.49;102488.22;677026;29;1733;-86
2022/03/27 01:11:16;;;;;;;11.68;8.27;;;;;;;12.78;59.51;102498.03;674686;29;1305;-86
2022/03/27 01:11:37;;;;;;;13.18;8.40;;;;;;;12.77;59.87;102496.25;682556;29;1746;-86
2022/03/27 01:12:26;;;;;;;11.43;8.20;;;;;;;12.71;59.31;102482.03;676948;29;1264;-86
2022/03/27 01:12:52;;;;;;;9.43;7.80;;;;;;;12.74;59.64;102486.53;683698;28;1736;-86
2022/03/27 01:13:19;;;;;;;10.13;8.63;;;;;;;12.70;59.41;102477.63;690632;28;1063;-86
2022/03/27 01:13:59;;;;;;;11.30;8.98;;;;;;;12.77;59.50;102493.63;688687;28;1758;-85
2022/03/27 01:14:31;;;;;;;12.63;8.80;;;;;;;12.84;59.51;102499.22;688819;28;1214;-85
2022/03/27 01:14:53;;;;;;;12.95;8.63;;;;;;;12.81;59.28;102499.09;690601;28;1117;-85
2022/03/27 01:15:26;;;;;;;13.02;8.80;;;;;;;12.80;59.24;102499.00;687817;28;1314;-85
2022/03/27 01:15:53;;;;;;;12.00;8.35;;;;;;;12.83;59.16;102496.50;689631;28;1750;-86
2022/03/27 01:16:35;;;;;;;11.13;8.10;;;;;;;12.84;59.19;102496.59;685367;28;962;-86
2022/03/27 01:17:08;;;;;;;11.70;8.20;;;;;;;12.82;59.19;102485.16;688690;28;1266;-86
2022/03/27 01:17:28;;;;;;;12.45;9.05;;;;;;;12.80;59.06;102484.19;687940;28;1096;-86
2022/03/27 01:17:50;;;;;;;12.02;8.98;;;;;;;12.81;59.27;102491.22;690189;28;1208;-85
2022/03/27 01:18:12;;;;;;;12.85;9.00;;;;;;;12.88;59.22;102498.53;693205;28;1195;-84
2022/03/27 01:18:33;;;;;;;12.52;8.70;;;;;;;12.85;59.40;102493.16;693664;28;1425;-86
2022/03/27 01:18:53;;;;;;;12.57;8.88;;;;;;;12.83;59.45;102491.28;693512;28;1191;-86
2022/03/27 01:19:15;;;;;;;13.07;8.60;;;;;;;12.82;59.12;102479.00;686905;28;2954;-85
2022/03/27 01:19:55;;;;;;;12.82;8.50;;;;;;;12.83;59.07;102483.41;689180;28;2248;-84
2022/03/27 01:20:29;;;;;;;10.90;8.32;;;;;;;12.85;59.40;102494.88;690888;28;1411;-86
2022/03/27 01:20:49;;;;;;;11.98;9.18;;;;;;;12.81;59.13;102478.13;684999;28;1397;-86
2022/03/27 01:21:11;;;;;;;12.70;9.50;;;;;;;12.83;59.17;102483.41;692872;28;1207;-86
2022/03/27 01:21:35;;;;;;;13.50;9.45;;;;;;;12.80;59.34;102480.66;687684;28;1548;-86
2022/03/27 01:21:55;;;;;;;12.65;8.77;;;;;;;12.81;59.26;102478.13;687386;28;1238;-85
2022/03/27 01:22:17;;;;;;;15.17;9.37;;;;;;;12.92;59.42;102496.97;687400;28;1401;-86
2022/03/27 01:22:38;;;;;;;13.90;9.40;;;;;;;12.92;59.31;102490.81;685096;28;1255;-86
2022/03/27 01:22:59;;;;;;;14.77;9.45;;;;;;;12.93;59.44;102500.47;686160;28;1506;-86
2022/03/27 01:23:20;;;;;;;13.20;9.15;;;;;;;12.88;59.56;102488.06;687599;28;1138;-86
2022/03/27 01:23:40;;;;;;;13.00;8.60;;;;;;;12.90;58.98;102490.72;686062;28;1707;-86
2022/03/27 01:24:02;;;;;;;11.57;8.50;;;;;;;12.93;59.35;102497.84;687903;28;1364;-86
2022/03/27 01:24:22;;;;;;;11.38;8.27;;;;;;;12.88;59.09;102487.16;690358;28;1382;-86
2022/03/27 01:24:44;;;;;;;11.40;8.30;;;;;;;12.93;59.04;102487.38;690383;28;1778;-86
2022/03/27 01:25:05;;;;;;;11.07;8.68;;;;;;;12.87;59.22;102485.38;692998;28;1278;-87
2022/03/27 01:25:36;;;;;;;11.23;8.50;;;;;;;12.83;59.16;102475.56;693197;28;1196;-85
2022/03/27 01:25:57;;;;;;;11.60;8.27;;;;;;;12.87;58.96;102485.38;690773;28;1594;-86
2022/03/27 01:26:18;;;;;;;11.93;8.40;;;;;;;12.86;59.21;102481.84;692424;28;2228;-85
2022/03/27 01:26:39;;;;;;;13.57;9.20;;;;;;;12.83;59.22;102472.94;690169;28;2236;-86
2022/03/27 01:27:00;;;;;;;16.08;9.73;;;;;;;12.88;59.42;102480.19;689018;28;2017;-85
2022/03/27 01:27:20;;;;;;;16.37;9.40;;;;;;;12.82;59.11;102474.66;690453;28;1313;-86
2022/03/27 01:27:41;;;;;;;15.32;8.95;;;;;;;12.82;58.95;102471.13;691941;28;1307;-86
2022/03/27 01:28:02;;;;;;;12.52;8.30;;;;;;;12.81;59.05;102467.66;689014;28;1292;-86
2022/03/27 01:28:23;;;;;;;11.25;8.20;;;;;;;12.92;58.95;102490.81;685151;28;1287;-86
2022/03/27 01:28:44;;;;;;;10.90;8.57;;;;;;;12.84;59.37;102473.00;687929;28;1233;-86
2022/03/27 01:29:08;;;;;;;11.77;8.90;;;;;;;12.91;59.26;102484.66;693292;28;1091;-86
2022/03/27 01:29:29;;;;;;;11.55;8.90;;;;;;;12.93;59.11;102487.38;690258;28;1315;-85
2022/03/27 01:29:50;;;;;;;10.85;8.90;;;;;;;12.93;59.17;102487.38;690430;28;1793;-85
2022/03/27 01:30:11;;;;;;;10.38;8.55;;;;;;;12.84;58.93;102473.00;694797;28;1047;-86
2022/03/27 01:30:32;;;;;;;10.82;8.77;;;;;;;12.92;59.12;102490.81;690390;28;1149;-85
2022/03/27 01:30:53;;;;;;;11.32;8.60;;;;;;;12.87;59.16;102472.25;695574;28;1684;-86
2022/03/27 01:31:13;;;;;;;11.80;8.88;;;;;;;12.91;59.03;102483.78;687710;28;1302;-86
2022/03/27 01:31:35;;;;;;;11.20;8.73;;;;;;;12.81;58.98;102467.66;690579;28;1188;-86
2022/03/27 01:31:57;;;;;;;10.55;8.82;;;;;;;12.91;58.88;102479.41;690381;28;1241;-86
2022/03/27 01:32:18;;;;;;;12.68;9.10;;;;;;;12.86;58.92;102473.97;690404;28;1075;-87
2022/03/27 01:32:39;;;;;;;13.48;9.00;;;;;;;12.91;59.34;102479.41;685307;28;863;-86
2022/03/27 01:32:59;;;;;;;16.67;9.40;;;;;;;12.88;58.99;102472.34;689119;28;1203;-86
2022/03/27 01:33:20;;;;;;;14.85;9.50;;;;;;;12.87;59.22;102461.78;692178;28;1209;-86
2022/03/27 01:33:41;;;;;;;13.20;9.15;;;;;;;12.92;58.85;102480.34;690376;28;1207;-85
2022/03/27 01:34:02;;;;;;;12.03;9.13;;;;;;;12.86;59.25;102460.00;683874;28;1229;-86
2022/03/27 01:34:23;;;;;;;12.18;9.30;;;;;;;12.88;58.84;102467.09;690369;28;1425;-85
2022/03/27 01:34:45;;;;;;;12.63;9.40;;;;;;;12.87;58.85;102462.69;693303;28;1098;-87
2022/03/27 01:35:06;;;;;;;12.65;9.40;;;;;;;12.87;58.77;102467.94;690208;28;1658;-86
2022/03/27 01:35:27;;;;;;;13.20;9.00;;;;;;;12.90;59.20;102467.16;687818;28;1291;-85
2022/03/27 01:35:47;;;;;;;13.93;9.37;;;;;;;12.95;58.97;102475.25;690506;28;1205;-86
2022/03/27 01:36:24;;;;;;;12.50;9.15;;;;;;;12.87;58.88;102461.78;690421;28;1130;-86
2022/03/27 01:37:08;;;;;;;11.60;9.27;;;;;;;12.91;58.95;102473.31;684025;28;1089;-86
2022/03/27 01:37:28;;;;;;;11.82;8.60;;;;;;;12.95;58.81;102476.16;682306;28;1237;-86
2022/03/27 01:37:50;;;;;;;11.43;8.73;;;;;;;12.91;58.80;102462.81;685143;28;1503;-86
2022/03/27 01:38:10;;;;;;;13.25;8.90;;;;;;;12.91;58.98;102466.31;687634;28;1253;-86
2022/03/27 01:38:31;;;;;;;13.15;9.30;;;;;;;12.93;58.88;102466.41;690633;28;877;-86
2022/03/27 01:38:53;;;;;;;13.52;9.60;;;;;;;12.86;58.67;102457.38;687747;28;1414;-86
2022/03/27 01:39:15;;;;;;;12.77;9.60;;;;;;;12.84;58.93;102459.03;685181;28;1296;-86
2022/03/27 01:39:37;;;;;;;13.05;9.50;;;;;;;12.89;58.99;102465.34;684875;28;1081;-86
2022/03/27 01:39:57;;;;;;;13.35;9.38;;;;;;;12.85;58.94;102461.69;684935;28;1972;-86
2022/03/27 01:40:18;;;;;;;13.37;9.40;;;;;;;12.88;58.92;102474.06;689814;28;1175;-85
2022/03/27 01:40:39;;;;;;;12.70;9.50;;;;;;;12.86;58.64;102467.84;687832;28;1263;-86
2022/03/27 01:40:59;;;;;;;11.88;9.45;;;;;;;12.87;58.83;102467.94;687637;28;1233;-86
2022/03/27 01:41:21;;;;;;;11.48;9.32;;;;;;;12.86;58.73;102465.22;687717;28;1284;-86
2022/03/27 01:41:42;;;;;;;11.02;9.32;;;;;;;12.89;59.08;102471.50;693883;28;1389;-86
2022/03/27 01:42:05;;;;;;;11.90;9.23;;;;;;;12.77;58.72;102456.94;692022;28;1283;-87
2022/03/27 01:42:25;;;;;;;11.88;9.10;;;;;;;12.81;58.92;102466.72;685765;28;1356;-86
2022/03/27 01:42:46;;;;;;;11.38;8.95;;;;;;;12.78;58.72;102466.59;685594;28;1181;-85
2022/03/27 01:43:07;;;;;;;11.30;9.30;;;;;;;12.88;59.02;102477.59;686177;28;1142;-85
2022/03/27 01:43:28;;;;;;;11.73;9.63;;;;;;;12.88;58.83;102474.06;685177;28;1371;-85
2022/03/27 01:43:49;;;;;;;12.50;9.43;;;;;;;12.79;58.88;102457.91;686771;28;1548;-85
2022/03/27 01:44:13;;;;;;;12.77;9.27;;;;;;;12.87;59.17;102472.25;690561;28;1251;-86
2022/03/27 01:44:33;;;;;;;13.38;9.15;;;;;;;12.81;58.72;102462.41;690269;28;1324;-86
2022/03/27 01:44:54;;;;;;;14.10;9.15;;;;;;;12.88;59.00;102474.06;692755;28;984;-86
2022/03/27 01:45:14;;;;;;;13.87;9.47;;;;;;;12.82;58.81;102466.81;687874;28;1138;-85
2022/03/27 01:45:35;;;;;;;12.73;9.50;;;;;;;12.81;58.88;102461.50;693092;28;1720;-86
2022/03/27 01:45:55;;;;;;;13.55;9.27;;;;;;;12.77;58.94;102463.06;691076;28;1229;-86
2022/03/27 01:46:16;;;;;;;13.70;9.13;;;;;;;12.82;58.97;102463.28;683157;28;1681;-86
2022/03/27 01:46:39;;;;;;;13.00;9.10;;;;;;;12.82;58.77;102468.53;685015;28;1115;-88
2022/03/27 01:47:01;;;;;;;10.70;9.00;;;;;;;12.84;58.81;102470.38;686523;28;1238;-86
2022/03/27 01:47:21;;;;;;;10.18;8.80;;;;;;;12.76;59.10;102456.03;687688;28;1371;-86